EZY28YR EGPE-EGKK
Flight info
| Callsign | EZY28YR |
|---|---|
| Flight time | 1h 12m |
| Altitude | 32000 |
| Route | DCT GUSSI N560 ERSON DCT ELBUS L612 DCS N57 POL P18 TELBA L151 KIDLI KIDLI1G |
| Aircraft | A20N/M-V/N |
Departure
| Time | 2026-05-05 15:36 |
|---|---|
| Airport | Inverness Airport (EGPE) |
Arrival
| Time | 2026-05-05 16:49 |
|---|---|
| Airport | London Gatwick Airport (EGKK) |
| Time | Latitude | Longitude | Altitude | Speed | Heading |
|---|---|---|---|---|---|
| 2026-05-05 15:17 | 57.53988 | -4.06247 | 38 ft | 0 kts | 271° |
| 2026-05-05 15:29 | 57.53988 | -4.06227 | 38 ft | 1 kts | 271° |
| 2026-05-05 15:30 | 57.53988 | -4.06208 | 38 ft | 1 kts | 271° |
| 2026-05-05 15:30 | 57.53988 | -4.06189 | 38 ft | 1 kts | 261° |
| 2026-05-05 15:30 | 57.53992 | -4.06172 | 38 ft | 1 kts | 221° |
| 2026-05-05 15:30 | 57.54008 | -4.06157 | 36 ft | 5 kts | 194° |
| 2026-05-05 15:31 | 57.54018 | -4.06154 | 35 ft | 0 kts | 188° |
| 2026-05-05 15:34 | 57.54016 | -4.06154 | 36 ft | 1 kts | 188° |
| 2026-05-05 15:34 | 57.53992 | -4.06158 | 38 ft | 7 kts | 185° |
| 2026-05-05 15:34 | 57.53933 | -4.06167 | 37 ft | 10 kts | 184° |
| 2026-05-05 15:35 | 57.53858 | -4.06178 | 37 ft | 12 kts | 185° |
| 2026-05-05 15:35 | 57.53774 | -4.06150 | 36 ft | 13 kts | 139° |
| 2026-05-05 15:35 | 57.53722 | -4.06004 | 36 ft | 15 kts | 121° |
| 2026-05-05 15:35 | 57.53751 | -4.05837 | 36 ft | 15 kts | 48° |
| 2026-05-05 15:36 | 57.53941 | -4.05426 | 37 ft | 84 kts | 49° |
| 2026-05-05 15:36 | 57.54506 | -4.04196 | 156 ft | 154 kts | 49° |
| 2026-05-05 15:36 | 57.55260 | -4.02588 | 779 ft | 172 kts | 48° |
| 2026-05-05 15:36 | 57.56095 | -4.00910 | 1848 ft | 176 kts | 45° |
| 2026-05-05 15:37 | 57.56951 | -3.99308 | 2848 ft | 178 kts | 41° |
| 2026-05-05 15:37 | 57.57883 | -3.97659 | 3671 ft | 199 kts | 44° |
| 2026-05-05 15:37 | 57.58937 | -3.95637 | 4215 ft | 232 kts | 43° |
| 2026-05-05 15:37 | 57.59883 | -3.93076 | 5113 ft | 250 kts | 68° |
| 2026-05-05 15:38 | 57.60044 | -3.89816 | 6200 ft | 259 kts | 99° |
| 2026-05-05 15:38 | 57.59318 | -3.86734 | 7315 ft | 266 kts | 128° |
| 2026-05-05 15:38 | 57.58423 | -3.85168 | 8046 ft | 270 kts | 147° |
| 2026-05-05 15:38 | 57.56743 | -3.83543 | 8860 ft | 276 kts | 159° |
| 2026-05-05 15:39 | 57.54955 | -3.82125 | 10312 ft | 283 kts | 162° |
| 2026-05-05 15:39 | 57.53036 | -3.81483 | 11394 ft | 281 kts | 187° |
| 2026-05-05 15:39 | 57.51099 | -3.81976 | 12537 ft | 281 kts | 199° |
| 2026-05-05 15:39 | 57.49192 | -3.83158 | 13290 ft | 300 kts | 207° |
| 2026-05-05 15:40 | 57.47219 | -3.84837 | 13894 ft | 321 kts | 212° |
| 2026-05-05 15:40 | 57.45225 | -3.86844 | 14765 ft | 330 kts | 214° |
| 2026-05-05 15:40 | 57.43225 | -3.89005 | 15782 ft | 334 kts | 215° |
| 2026-05-05 15:40 | 57.41213 | -3.91228 | 16799 ft | 339 kts | 216° |
| 2026-05-05 15:41 | 57.39199 | -3.93449 | 17816 ft | 343 kts | 215° |
| 2026-05-05 15:41 | 57.37124 | -3.95712 | 18789 ft | 348 kts | 215° |
| 2026-05-05 15:41 | 57.35019 | -3.97983 | 19672 ft | 353 kts | 215° |
| 2026-05-05 15:41 | 57.32874 | -4.00272 | 20565 ft | 357 kts | 215° |
| 2026-05-05 15:42 | 57.30700 | -4.02576 | 21408 ft | 362 kts | 214° |
| 2026-05-05 15:42 | 57.28497 | -4.04903 | 22252 ft | 367 kts | 214° |
| 2026-05-05 15:42 | 57.26265 | -4.07256 | 23125 ft | 371 kts | 214° |
| 2026-05-05 15:42 | 57.24003 | -4.09624 | 23943 ft | 376 kts | 213° |
| 2026-05-05 15:43 | 57.21590 | -4.11622 | 24664 ft | 385 kts | 204° |
| 2026-05-05 15:43 | 57.18970 | -4.12907 | 25369 ft | 393 kts | 197° |
| 2026-05-05 15:43 | 57.16266 | -4.13842 | 26065 ft | 398 kts | 195° |
| 2026-05-05 15:43 | 57.13519 | -4.14596 | 26733 ft | 402 kts | 193° |
| 2026-05-05 15:44 | 57.10722 | -4.15266 | 27370 ft | 406 kts | 192° |
| 2026-05-05 15:44 | 57.07906 | -4.15905 | 28007 ft | 410 kts | 192° |
| 2026-05-05 15:44 | 57.05067 | -4.16549 | 28628 ft | 413 kts | 192° |
| 2026-05-05 15:44 | 57.02187 | -4.17219 | 28976 ft | 421 kts | 192° |
| 2026-05-05 15:45 | 56.99251 | -4.17920 | 29396 ft | 428 kts | 192° |
| 2026-05-05 15:45 | 56.96292 | -4.18635 | 30053 ft | 429 kts | 192° |
| 2026-05-05 15:45 | 56.93335 | -4.19351 | 30709 ft | 428 kts | 192° |
| 2026-05-05 15:45 | 56.90383 | -4.20067 | 31316 ft | 427 kts | 192° |
| 2026-05-05 15:46 | 56.87428 | -4.20785 | 31854 ft | 429 kts | 192° |
| 2026-05-05 15:46 | 56.84504 | -4.21498 | 32061 ft | 429 kts | 192° |
| 2026-05-05 15:46 | 56.81549 | -4.22216 | 32082 ft | 429 kts | 192° |
| 2026-05-05 15:47 | 56.75630 | -4.23650 | 32067 ft | 429 kts | 192° |
| 2026-05-05 15:47 | 56.69700 | -4.25083 | 32078 ft | 429 kts | 192° |
| 2026-05-05 15:48 | 56.63773 | -4.26512 | 32080 ft | 429 kts | 192° |
| 2026-05-05 15:48 | 56.57850 | -4.27933 | 32077 ft | 429 kts | 192° |
| 2026-05-05 15:49 | 56.51924 | -4.29346 | 32074 ft | 429 kts | 192° |
| 2026-05-05 15:49 | 56.45955 | -4.30234 | 32075 ft | 435 kts | 182° |
| 2026-05-05 15:50 | 56.39898 | -4.29208 | 32078 ft | 438 kts | 177° |
| 2026-05-05 15:50 | 56.33850 | -4.27739 | 32074 ft | 439 kts | 176° |
| 2026-05-05 15:51 | 56.27804 | -4.26206 | 32078 ft | 439 kts | 176° |
| 2026-05-05 15:51 | 56.21751 | -4.24713 | 32055 ft | 439 kts | 176° |
| 2026-05-05 15:52 | 56.15699 | -4.23246 | 32075 ft | 439 kts | 176° |
| 2026-05-05 15:52 | 56.09643 | -4.21792 | 32073 ft | 439 kts | 176° |
| 2026-05-05 15:53 | 56.03629 | -4.20356 | 32073 ft | 439 kts | 176° |
| 2026-05-05 15:53 | 55.97541 | -4.18909 | 32075 ft | 439 kts | 176° |
| 2026-05-05 15:54 | 55.91490 | -4.17474 | 32076 ft | 438 kts | 176° |
| 2026-05-05 15:54 | 55.85477 | -4.16053 | 32073 ft | 438 kts | 176° |
| 2026-05-05 15:55 | 55.79429 | -4.14628 | 32073 ft | 438 kts | 176° |
| 2026-05-05 15:55 | 55.73375 | -4.13206 | 32069 ft | 438 kts | 176° |
| 2026-05-05 15:56 | 55.67321 | -4.11790 | 32067 ft | 439 kts | 176° |
| 2026-05-05 15:56 | 55.61269 | -4.10376 | 32062 ft | 438 kts | 176° |
| 2026-05-05 15:57 | 55.55207 | -4.08965 | 32056 ft | 439 kts | 176° |
| 2026-05-05 15:57 | 55.49259 | -4.06758 | 32049 ft | 444 kts | 163° |
| 2026-05-05 15:58 | 55.43644 | -4.02084 | 32049 ft | 447 kts | 155° |
| 2026-05-05 15:58 | 55.38186 | -3.96810 | 32046 ft | 447 kts | 154° |
| 2026-05-05 15:59 | 55.32748 | -3.91454 | 32052 ft | 447 kts | 154° |
| 2026-05-05 15:59 | 55.27300 | -3.86158 | 32035 ft | 447 kts | 154° |
| 2026-05-05 16:00 | 55.21849 | -3.80919 | 32044 ft | 447 kts | 154° |
| 2026-05-05 16:00 | 55.16395 | -3.75710 | 32046 ft | 446 kts | 154° |
| 2026-05-05 16:01 | 55.10937 | -3.70511 | 32038 ft | 446 kts | 154° |
| 2026-05-05 16:01 | 55.05483 | -3.65331 | 32041 ft | 446 kts | 154° |
| 2026-05-05 16:02 | 55.00062 | -3.60198 | 32034 ft | 446 kts | 154° |
| 2026-05-05 16:02 | 54.94597 | -3.55038 | 32026 ft | 446 kts | 154° |
| 2026-05-05 16:03 | 54.89141 | -3.49909 | 32029 ft | 445 kts | 154° |
| 2026-05-05 16:03 | 54.83691 | -3.44805 | 32031 ft | 445 kts | 154° |
| 2026-05-05 16:04 | 54.78239 | -3.39708 | 32023 ft | 445 kts | 154° |
| 2026-05-05 16:04 | 54.72813 | -3.34528 | 32020 ft | 446 kts | 150° |
| 2026-05-05 16:05 | 54.67760 | -3.28355 | 32017 ft | 447 kts | 147° |
| 2026-05-05 16:05 | 54.62783 | -3.21917 | 32015 ft | 447 kts | 147° |
| 2026-05-05 16:06 | 54.57829 | -3.15455 | 32021 ft | 445 kts | 147° |
| 2026-05-05 16:06 | 54.52883 | -3.09043 | 32019 ft | 445 kts | 147° |
| 2026-05-05 16:07 | 54.47916 | -3.02651 | 32044 ft | 445 kts | 147° |
| 2026-05-05 16:07 | 54.45425 | -2.99459 | 32477 ft | 445 kts | 147° |
| 2026-05-05 16:07 | 54.42958 | -2.96295 | 33237 ft | 440 kts | 147° |
| 2026-05-05 16:07 | 54.40498 | -2.93145 | 33827 ft | 440 kts | 147° |
| 2026-05-05 16:08 | 54.38074 | -2.90049 | 34007 ft | 439 kts | 147° |
| 2026-05-05 16:08 | 54.33176 | -2.83805 | 34021 ft | 439 kts | 147° |
| 2026-05-05 16:09 | 54.28266 | -2.77567 | 34018 ft | 439 kts | 147° |
| 2026-05-05 16:09 | 54.23354 | -2.71345 | 34025 ft | 439 kts | 147° |
| 2026-05-05 16:10 | 54.18441 | -2.65143 | 34022 ft | 438 kts | 146° |
| 2026-05-05 16:10 | 54.13533 | -2.58969 | 34022 ft | 438 kts | 146° |
| 2026-05-05 16:11 | 54.08627 | -2.52815 | 34021 ft | 438 kts | 146° |
| 2026-05-05 16:12 | 53.98839 | -2.40585 | 34020 ft | 438 kts | 146° |
| 2026-05-05 16:13 | 53.86547 | -2.25329 | 34022 ft | 438 kts | 146° |
| 2026-05-05 16:13 | 53.81629 | -2.19256 | 34017 ft | 438 kts | 146° |
| 2026-05-05 16:14 | 53.76482 | -2.13829 | 34020 ft | 434 kts | 158° |
| 2026-05-05 16:14 | 53.70693 | -2.11319 | 34009 ft | 429 kts | 177° |
| 2026-05-05 16:15 | 53.58806 | -2.12672 | 34019 ft | 429 kts | 187° |
| 2026-05-05 16:16 | 53.46905 | -2.14743 | 34014 ft | 430 kts | 186° |
| 2026-05-05 16:17 | 53.37975 | -2.16170 | 34021 ft | 430 kts | 186° |
| 2026-05-05 16:18 | 53.29084 | -2.17575 | 34019 ft | 430 kts | 186° |
| 2026-05-05 16:19 | 53.20150 | -2.18987 | 34018 ft | 431 kts | 186° |
| 2026-05-05 16:19 | 53.11179 | -2.20398 | 34017 ft | 432 kts | 186° |
| 2026-05-05 16:20 | 52.99202 | -2.22269 | 34016 ft | 432 kts | 186° |
| 2026-05-05 16:22 | 52.84174 | -2.25125 | 34023 ft | 436 kts | 192° |
| 2026-05-05 16:23 | 52.72361 | -2.29408 | 34020 ft | 436 kts | 188° |
| 2026-05-05 16:23 | 52.63402 | -2.27853 | 34020 ft | 437 kts | 158° |
| 2026-05-05 16:24 | 52.58961 | -2.23900 | 34021 ft | 437 kts | 148° |
| 2026-05-05 16:25 | 52.51316 | -2.15493 | 34018 ft | 447 kts | 146° |
| 2026-05-05 16:25 | 52.43565 | -2.06909 | 34010 ft | 447 kts | 147° |
| 2026-05-05 16:26 | 52.33177 | -1.95659 | 33987 ft | 445 kts | 148° |
| 2026-05-05 16:27 | 52.30599 | -1.92883 | 33816 ft | 441 kts | 148° |
| 2026-05-05 16:27 | 52.28049 | -1.90140 | 33202 ft | 438 kts | 148° |
| 2026-05-05 16:27 | 52.25525 | -1.87428 | 32511 ft | 440 kts | 149° |
| 2026-05-05 16:27 | 52.22961 | -1.84680 | 31556 ft | 442 kts | 149° |
| 2026-05-05 16:28 | 52.20383 | -1.81917 | 30693 ft | 444 kts | 149° |
| 2026-05-05 16:28 | 52.17798 | -1.79144 | 30119 ft | 448 kts | 149° |
| 2026-05-05 16:28 | 52.15174 | -1.76333 | 29839 ft | 450 kts | 149° |
| 2026-05-05 16:28 | 52.12566 | -1.73543 | 29313 ft | 447 kts | 149° |
| 2026-05-05 16:29 | 52.09966 | -1.70766 | 28479 ft | 443 kts | 149° |
| 2026-05-05 16:29 | 52.07404 | -1.68035 | 27632 ft | 439 kts | 149° |
| 2026-05-05 16:29 | 52.04856 | -1.65319 | 26812 ft | 436 kts | 149° |
| 2026-05-05 16:29 | 52.02328 | -1.62628 | 25997 ft | 433 kts | 149° |
| 2026-05-05 16:30 | 51.99813 | -1.59961 | 25226 ft | 430 kts | 149° |
| 2026-05-05 16:30 | 51.97351 | -1.57359 | 24477 ft | 426 kts | 149° |
| 2026-05-05 16:30 | 51.94870 | -1.54741 | 23711 ft | 423 kts | 149° |
| 2026-05-05 16:30 | 51.92404 | -1.52144 | 22558 ft | 421 kts | 149° |
| 2026-05-05 16:31 | 51.89962 | -1.49574 | 21341 ft | 415 kts | 149° |
| 2026-05-05 16:31 | 51.87559 | -1.47048 | 20170 ft | 410 kts | 148° |
| 2026-05-05 16:31 | 51.85178 | -1.44550 | 19035 ft | 404 kts | 148° |
| 2026-05-05 16:31 | 51.82843 | -1.42102 | 17905 ft | 398 kts | 148° |
| 2026-05-05 16:32 | 51.80539 | -1.39688 | 16689 ft | 392 kts | 148° |
| 2026-05-05 16:32 | 51.78278 | -1.37323 | 15734 ft | 381 kts | 147° |
| 2026-05-05 16:32 | 51.76104 | -1.35050 | 15186 ft | 362 kts | 147° |
| 2026-05-05 16:32 | 51.74064 | -1.32920 | 14981 ft | 336 kts | 147° |
| 2026-05-05 16:33 | 51.72183 | -1.30957 | 14954 ft | 310 kts | 147° |
| 2026-05-05 16:33 | 51.70397 | -1.29095 | 14964 ft | 304 kts | 147° |
| 2026-05-05 16:33 | 51.68635 | -1.27261 | 14884 ft | 298 kts | 147° |
| 2026-05-05 16:33 | 51.66901 | -1.25457 | 14436 ft | 297 kts | 147° |
| 2026-05-05 16:34 | 51.65185 | -1.23673 | 13938 ft | 298 kts | 147° |
| 2026-05-05 16:34 | 51.63439 | -1.21859 | 13613 ft | 298 kts | 147° |
| 2026-05-05 16:34 | 51.61700 | -1.20055 | 13458 ft | 296 kts | 147° |
| 2026-05-05 16:34 | 51.59965 | -1.18255 | 13296 ft | 296 kts | 147° |
| 2026-05-05 16:35 | 51.58238 | -1.16466 | 13135 ft | 296 kts | 147° |
| 2026-05-05 16:35 | 51.56516 | -1.14684 | 12971 ft | 295 kts | 146° |
| 2026-05-05 16:35 | 51.54784 | -1.12894 | 12805 ft | 296 kts | 147° |
| 2026-05-05 16:35 | 51.53058 | -1.11111 | 12633 ft | 294 kts | 147° |
| 2026-05-05 16:36 | 51.51345 | -1.09342 | 12474 ft | 293 kts | 147° |
| 2026-05-05 16:36 | 51.49629 | -1.07572 | 12307 ft | 293 kts | 147° |
| 2026-05-05 16:36 | 51.47915 | -1.05806 | 12148 ft | 292 kts | 147° |
| 2026-05-05 16:36 | 51.46206 | -1.04048 | 11907 ft | 292 kts | 146° |
| 2026-05-05 16:37 | 51.44495 | -1.02287 | 11603 ft | 292 kts | 146° |
| 2026-05-05 16:37 | 51.42784 | -1.00528 | 11303 ft | 291 kts | 147° |
| 2026-05-05 16:37 | 51.41082 | -0.98781 | 11008 ft | 290 kts | 146° |
| 2026-05-05 16:37 | 51.39387 | -0.97042 | 10731 ft | 289 kts | 146° |
| 2026-05-05 16:38 | 51.37689 | -0.95302 | 10458 ft | 288 kts | 147° |
| 2026-05-05 16:38 | 51.36011 | -0.93585 | 10180 ft | 284 kts | 147° |
| 2026-05-05 16:38 | 51.34366 | -0.91902 | 9916 ft | 276 kts | 147° |
| 2026-05-05 16:38 | 51.32763 | -0.90264 | 9625 ft | 271 kts | 147° |
| 2026-05-05 16:39 | 51.31199 | -0.88666 | 9335 ft | 270 kts | 147° |
| 2026-05-05 16:39 | 51.29618 | -0.87052 | 9046 ft | 269 kts | 147° |
| 2026-05-05 16:39 | 51.28042 | -0.85446 | 8755 ft | 268 kts | 147° |
| 2026-05-05 16:39 | 51.26474 | -0.83849 | 8470 ft | 267 kts | 147° |
| 2026-05-05 16:40 | 51.24909 | -0.82256 | 8183 ft | 266 kts | 146° |
| 2026-05-05 16:40 | 51.23348 | -0.80668 | 7901 ft | 266 kts | 147° |
| 2026-05-05 16:40 | 51.21794 | -0.79090 | 7625 ft | 264 kts | 147° |
| 2026-05-05 16:40 | 51.20246 | -0.77518 | 7348 ft | 262 kts | 147° |
| 2026-05-05 16:41 | 51.18711 | -0.75960 | 7078 ft | 262 kts | 146° |
| 2026-05-05 16:41 | 51.17173 | -0.74401 | 6805 ft | 262 kts | 146° |
| 2026-05-05 16:41 | 51.15632 | -0.72839 | 6549 ft | 262 kts | 146° |
| 2026-05-05 16:41 | 51.14106 | -0.71267 | 6214 ft | 260 kts | 143° |
| 2026-05-05 16:42 | 51.12758 | -0.69369 | 5847 ft | 257 kts | 133° |
| 2026-05-05 16:42 | 51.11540 | -0.67299 | 5486 ft | 255 kts | 131° |
| 2026-05-05 16:42 | 51.10343 | -0.65230 | 5133 ft | 254 kts | 130° |
| 2026-05-05 16:42 | 51.09165 | -0.63201 | 4781 ft | 250 kts | 129° |
| 2026-05-05 16:43 | 51.08222 | -0.60928 | 4416 ft | 245 kts | 114° |
| 2026-05-05 16:43 | 51.07523 | -0.58480 | 4048 ft | 241 kts | 111° |
| 2026-05-05 16:43 | 51.07055 | -0.55946 | 3697 ft | 237 kts | 93° |
| 2026-05-05 16:43 | 51.07221 | -0.53389 | 3335 ft | 232 kts | 67° |
| 2026-05-05 16:44 | 51.08031 | -0.51215 | 3044 ft | 226 kts | 53° |
| 2026-05-05 16:44 | 51.08966 | -0.49293 | 2990 ft | 210 kts | 51° |
| 2026-05-05 16:44 | 51.09870 | -0.47497 | 3003 ft | 208 kts | 51° |
| 2026-05-05 16:44 | 51.10738 | -0.45649 | 2996 ft | 209 kts | 57° |
| 2026-05-05 16:45 | 51.11439 | -0.43616 | 2993 ft | 210 kts | 61° |
| 2026-05-05 16:45 | 51.12083 | -0.41529 | 2982 ft | 206 kts | 67° |
| 2026-05-05 16:45 | 51.12237 | -0.39345 | 2990 ft | 197 kts | 93° |
| 2026-05-05 16:45 | 51.12197 | -0.37240 | 2810 ft | 185 kts | 81° |
| 2026-05-05 16:46 | 51.12445 | -0.35340 | 2529 ft | 168 kts | 72° |
| 2026-05-05 16:46 | 51.12742 | -0.33601 | 2203 ft | 157 kts | 75° |
| 2026-05-05 16:46 | 51.12979 | -0.31960 | 1967 ft | 146 kts | 74° |
| 2026-05-05 16:46 | 51.13210 | -0.30416 | 1732 ft | 142 kts | 75° |
| 2026-05-05 16:47 | 51.13428 | -0.28905 | 1461 ft | 138 kts | 75° |
| 2026-05-05 16:47 | 51.13648 | -0.27428 | 1194 ft | 138 kts | 75° |
| 2026-05-05 16:47 | 51.13864 | -0.25932 | 954 ft | 136 kts | 76° |
| 2026-05-05 16:47 | 51.14051 | -0.24564 | 762 ft | 131 kts | 78° |
| 2026-05-05 16:48 | 51.14234 | -0.23164 | 575 ft | 127 kts | 76° |
| 2026-05-05 16:48 | 51.14431 | -0.21814 | 364 ft | 123 kts | 78° |
| 2026-05-05 16:48 | 51.14613 | -0.20497 | 236 ft | 118 kts | 76° |
| 2026-05-05 16:48 | 51.14778 | -0.19312 | 212 ft | 98 kts | 78° |
| 2026-05-05 16:49 | 51.14885 | -0.18629 | 210 ft | 38 kts | 58° |
| 2026-05-05 16:49 | 51.15031 | -0.18339 | 216 ft | 22 kts | 51° |
| 2026-05-05 16:49 | 51.15144 | -0.18194 | 210 ft | 17 kts | 354° |
| 2026-05-05 16:49 | 51.15176 | -0.18206 | 215 ft | 0 kts | 346° |
| 2026-05-05 16:50 | 51.15182 | -0.18212 | 213 ft | 6 kts | 326° |
| 2026-05-05 16:51 | 51.15183 | -0.18332 | 214 ft | 12 kts | 253° |
| 2026-05-05 16:51 | 51.15169 | -0.18451 | 213 ft | 12 kts | 260° |
| 2026-05-05 16:51 | 51.15151 | -0.18584 | 211 ft | 13 kts | 257° |
| 2026-05-05 16:51 | 51.15181 | -0.18707 | 216 ft | 13 kts | 348° |
| 2026-05-05 16:52 | 51.15277 | -0.18740 | 212 ft | 15 kts | 349° |
| 2026-05-05 16:52 | 51.15384 | -0.18774 | 208 ft | 14 kts | 348° |
| 2026-05-05 16:52 | 51.15481 | -0.18807 | 214 ft | 14 kts | 348° |
| 2026-05-05 16:52 | 51.15563 | -0.18817 | 213 ft | 12 kts | 22° |
| 2026-05-05 16:53 | 51.15597 | -0.18700 | 211 ft | 13 kts | 78° |
| 2026-05-05 16:53 | 51.15620 | -0.18540 | 218 ft | 16 kts | 77° |
| 2026-05-05 16:53 | 51.15625 | -0.18498 | 214 ft | 1 kts | 77° |
| 2026-05-05 16:59 | 51.15627 | -0.18490 | 208 ft | 2 kts | 77° |
| 2026-05-05 16:59 | 51.15632 | -0.18451 | 208 ft | 5 kts | 77° |
| 2026-05-05 16:59 | 51.15644 | -0.18365 | 208 ft | 12 kts | 78° |
| 2026-05-05 16:59 | 51.15668 | -0.18198 | 214 ft | 18 kts | 76° |
| 2026-05-05 17:00 | 51.15696 | -0.17990 | 214 ft | 21 kts | 77° |
| 2026-05-05 17:00 | 51.15729 | -0.17750 | 209 ft | 24 kts | 77° |
| 2026-05-05 17:00 | 51.15765 | -0.17486 | 218 ft | 24 kts | 77° |
| 2026-05-05 17:00 | 51.15802 | -0.17217 | 210 ft | 17 kts | 79° |
| 2026-05-05 17:01 | 51.15837 | -0.17090 | 208 ft | 10 kts | 23° |
| 2026-05-05 17:01 | 51.15905 | -0.17068 | 208 ft | 9 kts | 348° |
| 2026-05-05 17:01 | 51.15945 | -0.17118 | 208 ft | 6 kts | 322° |
| 2026-05-05 17:01 | 51.15968 | -0.17146 | 215 ft | 0 kts | 322° |
| 2026-05-05 17:02 | 51.15970 | -0.17148 | 215 ft | 0 kts | 322° |